sensor_id;sensor_type;location;lat;lon;timestamp;temperature;humidity
26342;DHT22;14054;50.108;8.640;2022-08-21T00:01:26;20.40;99.90
26342;DHT22;14054;50.108;8.640;2022-08-21T00:03:54;20.30;99.90
26342;DHT22;14054;50.108;8.640;2022-08-21T00:06:20;20.30;99.90
26342;DHT22;14054;50.108;8.640;2022-08-21T00:08:45;20.40;99.90
26342;DHT22;14054;50.108;8.640;2022-08-21T00:11:11;20.30;99.90
26342;DHT22;14054;50.108;8.640;2022-08-21T00:13:37;20.20;99.90
26342;DHT22;14054;50.108;8.640;2022-08-21T00:16:03;20.20;99.90
26342;DHT22;14054;50.108;8.640;2022-08-21T00:18:29;20.10;99.90
26342;DHT22;14054;50.108;8.640;2022-08-21T00:20:54;20.10;99.90
26342;DHT22;14054;50.108;8.640;2022-08-21T00:23:20;20.10;99.90
26342;DHT22;14054;50.108;8.640;2022-08-21T00:25:46;20.10;99.90
26342;DHT22;14054;50.108;8.640;2022-08-21T00:28:12;20.10;99.90
26342;DHT22;14054;50.108;8.640;2022-08-21T00:30:39;20.00;99.90
26342;DHT22;14054;50.108;8.640;2022-08-21T00:33:06;20.00;99.90
26342;DHT22;14054;50.108;8.640;2022-08-21T00:35:34;20.00;99.90
26342;DHT22;14054;50.108;8.640;2022-08-21T00:38:00;20.00;99.90
26342;DHT22;14054;50.108;8.640;2022-08-21T00:40:30;19.90;99.90
26342;DHT22;14054;50.108;8.640;2022-08-21T00:42:56;19.90;99.90
26342;DHT22;14054;50.108;8.640;2022-08-21T00:45:23;19.90;99.90
26342;DHT22;14054;50.108;8.640;2022-08-21T00:47:50;19.90;99.90
26342;DHT22;14054;50.108;8.640;2022-08-21T00:50:16;19.80;99.90
26342;DHT22;14054;50.108;8.640;2022-08-21T00:52:42;19.80;99.90
26342;DHT22;14054;50.108;8.640;2022-08-21T00:55:10;19.80;99.90
26342;DHT22;14054;50.108;8.640;2022-08-21T00:57:47;19.70;99.90
26342;DHT22;14054;50.108;8.640;2022-08-21T01:00:18;19.70;99.90
26342;DHT22;14054;50.108;8.640;2022-08-21T01:02:45;19.70;99.90
26342;DHT22;14054;50.108;8.640;2022-08-21T01:05:12;19.70;99.90
26342;DHT22;14054;50.108;8.640;2022-08-21T01:07:38;19.70;99.90
26342;DHT22;14054;50.108;8.640;2022-08-21T01:10:06;19.70;99.90
26342;DHT22;14054;50.108;8.640;2022-08-21T01:12:32;19.70;99.90
26342;DHT22;14054;50.108;8.640;2022-08-21T01:14:58;19.70;99.90
26342;DHT22;14054;50.108;8.640;2022-08-21T01:17:26;19.70;99.90
26342;DHT22;14054;50.108;8.640;2022-08-21T01:19:53;19.70;99.90
26342;DHT22;14054;50.108;8.640;2022-08-21T01:22:22;19.70;99.90
26342;DHT22;14054;50.108;8.640;2022-08-21T01:24:48;19.60;99.90
26342;DHT22;14054;50.108;8.640;2022-08-21T01:27:13;19.50;99.90
26342;DHT22;14054;50.108;8.640;2022-08-21T01:29:51;19.50;99.90
26342;DHT22;14054;50.108;8.640;2022-08-21T01:32:18;19.50;99.90
26342;DHT22;14054;50.108;8.640;2022-08-21T01:34:47;19.40;99.90
26342;DHT22;14054;50.108;8.640;2022-08-21T01:37:13;19.40;99.90
26342;DHT22;14054;50.108;8.640;2022-08-21T01:39:39;19.30;99.90
26342;DHT22;14054;50.108;8.640;2022-08-21T01:42:06;19.30;99.90
26342;DHT22;14054;50.108;8.640;2022-08-21T01:47:02;19.20;99.90
26342;DHT22;14054;50.108;8.640;2022-08-21T01:51:53;19.10;99.90
26342;DHT22;14054;50.108;8.640;2022-08-21T01:54:19;19.10;99.90
26342;DHT22;14054;50.108;8.640;2022-08-21T01:56:47;19.10;99.90
26342;DHT22;14054;50.108;8.640;2022-08-21T01:59:14;19.00;99.90
26342;DHT22;14054;50.108;8.640;2022-08-21T02:01:39;18.90;99.90
26342;DHT22;14054;50.108;8.640;2022-08-21T02:04:06;19.00;99.90
26342;DHT22;14054;50.108;8.640;2022-08-21T02:06:32;19.00;99.90
26342;DHT22;14054;50.108;8.640;2022-08-21T02:08:58;18.90;99.90
26342;DHT22;14054;50.108;8.640;2022-08-21T02:11:23;18.80;99.90
26342;DHT22;14054;50.108;8.640;2022-08-21T02:13:49;18.80;99.90
26342;DHT22;14054;50.108;8.640;2022-08-21T02:18:41;18.80;99.90
26342;DHT22;14054;50.108;8.640;2022-08-21T02:21:07;18.70;99.90
26342;DHT22;14054;50.108;8.640;2022-08-21T02:26:01;18.50;99.90
26342;DHT22;14054;50.108;8.640;2022-08-21T02:28:26;18.50;99.90
26342;DHT22;14054;50.108;8.640;2022-08-21T02:30:53;18.50;99.90
26342;DHT22;14054;50.108;8.640;2022-08-21T02:33:19;18.50;99.90
26342;DHT22;14054;50.108;8.640;2022-08-21T02:35:46;18.40;99.90
26342;DHT22;14054;50.108;8.640;2022-08-21T02:38:17;18.40;99.90
26342;DHT22;14054;50.108;8.640;2022-08-21T02:40:45;18.40;99.90
26342;DHT22;14054;50.108;8.640;2022-08-21T02:43:10;18.50;99.90
26342;DHT22;14054;50.108;8.640;2022-08-21T02:45:38;18.50;99.90
26342;DHT22;14054;50.108;8.640;2022-08-21T02:48:07;18.50;99.90
26342;DHT22;14054;50.108;8.640;2022-08-21T02:50:36;18.60;99.90
26342;DHT22;14054;50.108;8.640;2022-08-21T02:53:03;18.40;99.90
26342;DHT22;14054;50.108;8.640;2022-08-21T02:55:31;18.30;99.90
26342;DHT22;14054;50.108;8.640;2022-08-21T02:57:58;18.20;99.90
26342;DHT22;14054;50.108;8.640;2022-08-21T03:00:25;18.20;99.90
26342;DHT22;14054;50.108;8.640;2022-08-21T03:02:52;18.10;99.90
26342;DHT22;14054;50.108;8.640;2022-08-21T03:05:18;18.20;99.90
26342;DHT22;14054;50.108;8.640;2022-08-21T03:07:45;18.10;99.90
26342;DHT22;14054;50.108;8.640;2022-08-21T03:10:11;18.10;99.90
26342;DHT22;14054;50.108;8.640;2022-08-21T03:12:37;18.00;99.90
26342;DHT22;14054;50.108;8.640;2022-08-21T03:15:04;18.10;99.90
26342;DHT22;14054;50.108;8.640;2022-08-21T03:17:31;18.00;99.90
26342;DHT22;14054;50.108;8.640;2022-08-21T03:19:57;18.00;99.90
26342;DHT22;14054;50.108;8.640;2022-08-21T03:22:22;18.10;99.90
26342;DHT22;14054;50.108;8.640;2022-08-21T03:24:48;18.00;99.90
26342;DHT22;14054;50.108;8.640;2022-08-21T03:27:13;18.00;99.90
26342;DHT22;14054;50.108;8.640;2022-08-21T03:29:40;18.00;99.90
26342;DHT22;14054;50.108;8.640;2022-08-21T03:32:05;17.90;99.90
26342;DHT22;14054;50.108;8.640;2022-08-21T03:34:35;18.00;99.90
26342;DHT22;14054;50.108;8.640;2022-08-21T03:37:01;18.00;99.90
26342;DHT22;14054;50.108;8.640;2022-08-21T03:39:26;17.90;99.90
26342;DHT22;14054;50.108;8.640;2022-08-21T03:41:52;17.80;99.90
26342;DHT22;14054;50.108;8.640;2022-08-21T03:44:18;17.80;99.90
26342;DHT22;14054;50.108;8.640;2022-08-21T03:46:43;17.70;99.90
26342;DHT22;14054;50.108;8.640;2022-08-21T03:49:09;17.80;99.90
26342;DHT22;14054;50.108;8.640;2022-08-21T03:51:34;17.70;99.90
26342;DHT22;14054;50.108;8.640;2022-08-21T03:54:01;16.20;99.90
26342;DHT22;14054;50.108;8.640;2022-08-21T03:56:26;17.70;99.90
26342;DHT22;14054;50.108;8.640;2022-08-21T03:58:52;17.70;99.90
26342;DHT22;14054;50.108;8.640;2022-08-21T04:01:17;17.70;99.90
26342;DHT22;14054;50.108;8.640;2022-08-21T04:03:43;17.60;99.90
26342;DHT22;14054;50.108;8.640;2022-08-21T04:06:08;17.60;99.90
26342;DHT22;14054;50.108;8.640;2022-08-21T04:08:34;18.30;99.90
26342;DHT22;14054;50.108;8.640;2022-08-21T04:11:01;17.30;99.90
26342;DHT22;14054;50.108;8.640;2022-08-21T04:13:27;18.90;99.90
26342;DHT22;14054;50.108;8.640;2022-08-21T04:15:53;17.40;99.90
26342;DHT22;14054;50.108;8.640;2022-08-21T04:18:19;17.40;99.90
26342;DHT22;14054;50.108;8.640;2022-08-21T04:20:47;17.40;99.90
26342;DHT22;14054;50.108;8.640;2022-08-21T04:23:13;17.10;99.90
26342;DHT22;14054;50.108;8.640;2022-08-21T04:25:39;17.00;99.90
26342;DHT22;14054;50.108;8.640;2022-08-21T04:28:04;17.00;99.90
26342;DHT22;14054;50.108;8.640;2022-08-21T04:30:30;16.90;99.90
26342;DHT22;14054;50.108;8.640;2022-08-21T04:32:56;16.90;99.90
26342;DHT22;14054;50.108;8.640;2022-08-21T04:35:24;16.80;99.90
26342;DHT22;14054;50.108;8.640;2022-08-21T04:37:50;16.70;99.90
26342;DHT22;14054;50.108;8.640;2022-08-21T04:40:17;16.80;99.90
26342;DHT22;14054;50.108;8.640;2022-08-21T04:42:54;16.90;99.90
26342;DHT22;14054;50.108;8.640;2022-08-21T04:45:32;16.70;99.90
26342;DHT22;14054;50.108;8.640;2022-08-21T04:48:00;16.80;99.90
26342;DHT22;14054;50.108;8.640;2022-08-21T04:50:30;16.70;99.90
26342;DHT22;14054;50.108;8.640;2022-08-21T04:52:57;16.80;99.90
26342;DHT22;14054;50.108;8.640;2022-08-21T04:55:23;16.80;99.90
26342;DHT22;14054;50.108;8.640;2022-08-21T04:57:50;16.80;99.90
26342;DHT22;14054;50.108;8.640;2022-08-21T05:00:19;16.60;99.90
26342;DHT22;14054;50.108;8.640;2022-08-21T05:02:46;16.50;99.90
26342;DHT22;14054;50.108;8.640;2022-08-21T05:05:13;16.50;99.90
26342;DHT22;14054;50.108;8.640;2022-08-21T05:07:39;16.60;99.90
26342;DHT22;14054;50.108;8.640;2022-08-21T05:10:05;16.60;99.90
26342;DHT22;14054;50.108;8.640;2022-08-21T05:12:31;16.60;99.90
26342;DHT22;14054;50.108;8.640;2022-08-21T05:14:57;16.80;99.90
26342;DHT22;14054;50.108;8.640;2022-08-21T05:17:22;16.60;99.90
26342;DHT22;14054;50.108;8.640;2022-08-21T05:19:48;16.60;99.90
26342;DHT22;14054;50.108;8.640;2022-08-21T05:22:20;16.60;99.90
26342;DHT22;14054;50.108;8.640;2022-08-21T05:24:45;16.60;99.90
26342;DHT22;14054;50.108;8.640;2022-08-21T05:27:11;16.60;99.90
26342;DHT22;14054;50.108;8.640;2022-08-21T05:29:36;16.70;99.90
26342;DHT22;14054;50.108;8.640;2022-08-21T05:32:08;16.80;99.90
26342;DHT22;14054;50.108;8.640;2022-08-21T05:34:34;17.00;99.90
26342;DHT22;14054;50.108;8.640;2022-08-21T05:37:00;17.00;99.90
26342;DHT22;14054;50.108;8.640;2022-08-21T05:39:25;16.90;99.90
26342;DHT22;14054;50.108;8.640;2022-08-21T05:41:51;17.00;99.90
26342;DHT22;14054;50.108;8.640;2022-08-21T05:44:16;17.10;99.90
26342;DHT22;14054;50.108;8.640;2022-08-21T05:46:42;17.30;99.90
26342;DHT22;14054;50.108;8.640;2022-08-21T05:49:08;17.20;99.90
26342;DHT22;14054;50.108;8.640;2022-08-21T05:51:33;17.30;99.90
26342;DHT22;14054;50.108;8.640;2022-08-21T05:54:03;17.40;99.90
26342;DHT22;14054;50.108;8.640;2022-08-21T05:56:29;17.40;99.90
26342;DHT22;14054;50.108;8.640;2022-08-21T05:58:55;17.40;99.90
26342;DHT22;14054;50.108;8.640;2022-08-21T06:01:21;17.40;99.90
26342;DHT22;14054;50.108;8.640;2022-08-21T06:03:47;17.40;99.90
26342;DHT22;14054;50.108;8.640;2022-08-21T06:06:12;17.50;99.90
26342;DHT22;14054;50.108;8.640;2022-08-21T06:08:38;17.40;99.90
26342;DHT22;14054;50.108;8.640;2022-08-21T06:11:04;17.40;99.90
26342;DHT22;14054;50.108;8.640;2022-08-21T06:13:31;17.50;99.90
26342;DHT22;14054;50.108;8.640;2022-08-21T06:16:11;17.60;99.90
26342;DHT22;14054;50.108;8.640;2022-08-21T06:18:38;17.60;99.90
26342;DHT22;14054;50.108;8.640;2022-08-21T06:21:04;17.80;99.90
26342;DHT22;14054;50.108;8.640;2022-08-21T06:23:31;17.90;99.90
26342;DHT22;14054;50.108;8.640;2022-08-21T06:25:56;18.00;99.90
26342;DHT22;14054;50.108;8.640;2022-08-21T06:28:22;18.10;99.90
26342;DHT22;14054;50.108;8.640;2022-08-21T06:30:47;18.20;99.90
26342;DHT22;14054;50.108;8.640;2022-08-21T06:33:13;18.30;99.90
26342;DHT22;14054;50.108;8.640;2022-08-21T06:35:38;18.40;99.90
26342;DHT22;14054;50.108;8.640;2022-08-21T06:38:04;18.60;99.90
26342;DHT22;14054;50.108;8.640;2022-08-21T06:40:30;18.70;99.90
26342;DHT22;14054;50.108;8.640;2022-08-21T06:43:05;18.90;99.90
26342;DHT22;14054;50.108;8.640;2022-08-21T06:45:30;19.00;99.90
26342;DHT22;14054;50.108;8.640;2022-08-21T06:47:56;19.20;99.90
26342;DHT22;14054;50.108;8.640;2022-08-21T06:50:21;19.10;99.90
26342;DHT22;14054;50.108;8.640;2022-08-21T06:52:47;19.20;99.90
26342;DHT22;14054;50.108;8.640;2022-08-21T06:55:12;19.20;99.90
26342;DHT22;14054;50.108;8.640;2022-08-21T06:57:38;19.40;99.90
26342;DHT22;14054;50.108;8.640;2022-08-21T07:00:05;19.40;99.90
26342;DHT22;14054;50.108;8.640;2022-08-21T07:02:31;19.60;99.90
26342;DHT22;14054;50.108;8.640;2022-08-21T07:04:58;19.60;99.90
26342;DHT22;14054;50.108;8.640;2022-08-21T07:07:24;19.90;99.90
26342;DHT22;14054;50.108;8.640;2022-08-21T07:09:50;20.10;99.90
26342;DHT22;14054;50.108;8.640;2022-08-21T07:12:15;20.20;99.90
26342;DHT22;14054;50.108;8.640;2022-08-21T07:14:40;20.50;99.90
26342;DHT22;14054;50.108;8.640;2022-08-21T07:17:06;20.60;99.90
26342;DHT22;14054;50.108;8.640;2022-08-21T07:19:32;20.40;99.90
26342;DHT22;14054;50.108;8.640;2022-08-21T07:22:00;20.50;99.90
26342;DHT22;14054;50.108;8.640;2022-08-21T07:24:26;20.70;99.90
26342;DHT22;14054;50.108;8.640;2022-08-21T07:26:52;21.10;99.90
26342;DHT22;14054;50.108;8.640;2022-08-21T07:29:17;21.10;99.90
26342;DHT22;14054;50.108;8.640;2022-08-21T07:31:44;21.00;99.90
26342;DHT22;14054;50.108;8.640;2022-08-21T07:34:09;21.20;99.90
26342;DHT22;14054;50.108;8.640;2022-08-21T07:36:35;21.20;99.90
26342;DHT22;14054;50.108;8.640;2022-08-21T07:39:00;21.20;99.90
26342;DHT22;14054;50.108;8.640;2022-08-21T07:41:28;21.30;99.90
26342;DHT22;14054;50.108;8.640;2022-08-21T07:43:55;21.40;99.90
26342;DHT22;14054;50.108;8.640;2022-08-21T07:46:22;21.70;99.90
26342;DHT22;14054;50.108;8.640;2022-08-21T07:48:48;21.90;99.90
26342;DHT22;14054;50.108;8.640;2022-08-21T07:51:15;22.10;99.90
26342;DHT22;14054;50.108;8.640;2022-08-21T07:53:45;21.90;99.90
26342;DHT22;14054;50.108;8.640;2022-08-21T07:56:12;22.10;99.90
26342;DHT22;14054;50.108;8.640;2022-08-21T07:58:37;22.60;99.90
26342;DHT22;14054;50.108;8.640;2022-08-21T08:01:05;22.80;99.90
26342;DHT22;14054;50.108;8.640;2022-08-21T08:03:30;23.00;99.90
26342;DHT22;14054;50.108;8.640;2022-08-21T08:05:56;23.10;99.90
26342;DHT22;14054;50.108;8.640;2022-08-21T08:08:23;22.70;99.90
26342;DHT22;14054;50.108;8.640;2022-08-21T08:10:49;22.80;99.90
26342;DHT22;14054;50.108;8.640;2022-08-21T08:13:15;22.90;99.90
26342;DHT22;14054;50.108;8.640;2022-08-21T08:15:41;23.00;99.90
26342;DHT22;14054;50.108;8.640;2022-08-21T08:18:06;23.10;99.90
26342;DHT22;14054;50.108;8.640;2022-08-21T08:20:32;23.20;99.90
26342;DHT22;14054;50.108;8.640;2022-08-21T08:22:57;23.00;99.90
26342;DHT22;14054;50.108;8.640;2022-08-21T08:25:23;23.40;99.90
26342;DHT22;14054;50.108;8.640;2022-08-21T08:27:49;23.60;99.90
26342;DHT22;14054;50.108;8.640;2022-08-21T08:30:16;23.50;99.90
26342;DHT22;14054;50.108;8.640;2022-08-21T08:32:43;23.50;99.90
26342;DHT22;14054;50.108;8.640;2022-08-21T08:35:10;23.80;99.90
26342;DHT22;14054;50.108;8.640;2022-08-21T08:37:37;23.90;99.90
26342;DHT22;14054;50.108;8.640;2022-08-21T08:40:12;23.90;99.90
26342;DHT22;14054;50.108;8.640;2022-08-21T08:42:39;24.20;99.90
26342;DHT22;14054;50.108;8.640;2022-08-21T08:45:11;24.20;99.90
26342;DHT22;14054;50.108;8.640;2022-08-21T08:47:40;24.50;99.90
26342;DHT22;14054;50.108;8.640;2022-08-21T08:50:18;24.20;99.90
26342;DHT22;14054;50.108;8.640;2022-08-21T08:53:11;24.40;99.90
26342;DHT22;14054;50.108;8.640;2022-08-21T08:55:38;24.30;99.90
26342;DHT22;14054;50.108;8.640;2022-08-21T08:58:05;24.50;99.90
26342;DHT22;14054;50.108;8.640;2022-08-21T09:00:32;24.90;99.90
26342;DHT22;14054;50.108;8.640;2022-08-21T09:03:00;25.20;99.90
26342;DHT22;14054;50.108;8.640;2022-08-21T09:11:03;25.20;99.10
26342;DHT22;14054;50.108;8.640;2022-08-21T09:19:30;24.40;97.20
26342;DHT22;14054;50.108;8.640;2022-08-21T09:27:22;24.50;96.30
26342;DHT22;14054;50.108;8.640;2022-08-21T09:29:52;24.80;94.30
26342;DHT22;14054;50.108;8.640;2022-08-21T09:32:22;25.10;94.00
26342;DHT22;14054;50.108;8.640;2022-08-21T09:35:14;25.50;93.70
26342;DHT22;14054;50.108;8.640;2022-08-21T09:41:03;25.80;93.20
26342;DHT22;14054;50.108;8.640;2022-08-21T09:45:38;25.60;93.30
26342;DHT22;14054;50.108;8.640;2022-08-21T09:48:24;25.60;92.80
26342;DHT22;14054;50.108;8.640;2022-08-21T09:50:52;25.70;92.40
26342;DHT22;14054;50.108;8.640;2022-08-21T09:53:29;25.80;91.90
26342;DHT22;14054;50.108;8.640;2022-08-21T09:55:59;25.80;92.10
26342;DHT22;14054;50.108;8.640;2022-08-21T10:01:17;26.30;90.60
26342;DHT22;14054;50.108;8.640;2022-08-21T10:03:43;26.30;91.00
26342;DHT22;14054;50.108;8.640;2022-08-21T10:06:09;26.10;90.80
26342;DHT22;14054;50.108;8.640;2022-08-21T10:08:42;26.40;90.60
26342;DHT22;14054;50.108;8.640;2022-08-21T10:11:13;26.70;90.10
26342;DHT22;14054;50.108;8.640;2022-08-21T10:14:50;26.40;89.10
26342;DHT22;14054;50.108;8.640;2022-08-21T10:16:49;26.30;90.20
26342;DHT22;14054;50.108;8.640;2022-08-21T10:22:25;26.40;89.50
26342;DHT22;14054;50.108;8.640;2022-08-21T10:25:23;26.70;87.90
26342;DHT22;14054;50.108;8.640;2022-08-21T10:28:01;27.10;86.70
26342;DHT22;14054;50.108;8.640;2022-08-21T10:39:02;28.00;82.40
26342;DHT22;14054;50.108;8.640;2022-08-21T10:44:38;27.60;84.10
26342;DHT22;14054;50.108;8.640;2022-08-21T10:47:15;27.10;85.50
26342;DHT22;14054;50.108;8.640;2022-08-21T10:49:59;26.90;86.20
26342;DHT22;14054;50.108;8.640;2022-08-21T10:52:51;27.20;84.40
26342;DHT22;14054;50.108;8.640;2022-08-21T10:55:21;27.30;83.70
26342;DHT22;14054;50.108;8.640;2022-08-21T10:57:58;27.60;83.20
26342;DHT22;14054;50.108;8.640;2022-08-21T11:00:35;27.80;81.80
26342;DHT22;14054;50.108;8.640;2022-08-21T11:03:11;27.70;81.50
26342;DHT22;14054;50.108;8.640;2022-08-21T11:05:51;27.70;81.40
26342;DHT22;14054;50.108;8.640;2022-08-21T11:08:41;28.30;80.00
26342;DHT22;14054;50.108;8.640;2022-08-21T11:11:20;28.10;79.50
26342;DHT22;14054;50.108;8.640;2022-08-21T11:13:55;28.10;79.90
26342;DHT22;14054;50.108;8.640;2022-08-21T11:16:37;28.20;79.80
26342;DHT22;14054;50.108;8.640;2022-08-21T11:19:12;28.70;77.80
26342;DHT22;14054;50.108;8.640;2022-08-21T11:22:02;30.10;76.70
26342;DHT22;14054;50.108;8.640;2022-08-21T11:29:37;33.60;61.60
26342;DHT22;14054;50.108;8.640;2022-08-21T11:32:31;33.80;58.60
26342;DHT22;14054;50.108;8.640;2022-08-21T11:38:05;33.00;58.70
26342;DHT22;14054;50.108;8.640;2022-08-21T11:40:54;34.70;55.00
26342;DHT22;14054;50.108;8.640;2022-08-21T11:43:43;34.20;53.80
26342;DHT22;14054;50.108;8.640;2022-08-21T11:54:38;35.60;51.30
26342;DHT22;14054;50.108;8.640;2022-08-21T11:57:20;37.10;49.50
26342;DHT22;14054;50.108;8.640;2022-08-21T11:59:58;37.10;47.40
26342;DHT22;14054;50.108;8.640;2022-08-21T12:02:29;37.20;56.10
26342;DHT22;14054;50.108;8.640;2022-08-21T12:05:03;37.50;60.80
26342;DHT22;14054;50.108;8.640;2022-08-21T12:09:58;36.90;62.90
26342;DHT22;14054;50.108;8.640;2022-08-21T12:12:28;37.40;62.40
26342;DHT22;14054;50.108;8.640;2022-08-21T12:15:15;37.30;64.00
26342;DHT22;14054;50.108;8.640;2022-08-21T12:18:03;35.80;66.10
26342;DHT22;14054;50.108;8.640;2022-08-21T12:21:02;36.20;71.90
26342;DHT22;14054;50.108;8.640;2022-08-21T12:26:54;35.50;54.70
26342;DHT22;14054;50.108;8.640;2022-08-21T12:29:36;36.40;53.90
26342;DHT22;14054;50.108;8.640;2022-08-21T12:32:03;35.80;52.90
26342;DHT22;14054;50.108;8.640;2022-08-21T12:34:55;35.70;52.50
26342;DHT22;14054;50.108;8.640;2022-08-21T12:37:42;36.10;50.80
26342;DHT22;14054;50.108;8.640;2022-08-21T12:40:32;35.90;50.40
26342;DHT22;14054;50.108;8.640;2022-08-21T12:43:02;35.90;49.70
26342;DHT22;14054;50.108;8.640;2022-08-21T12:45:42;35.90;49.10
26342;DHT22;14054;50.108;8.640;2022-08-21T12:48:28;34.90;43.40
26342;DHT22;14054;50.108;8.640;2022-08-21T12:50:57;34.40;44.60
26342;DHT22;14054;50.108;8.640;2022-08-21T12:53:28;34.50;44.90
26342;DHT22;14054;50.108;8.640;2022-08-21T12:55:54;35.60;43.40
26342;DHT22;14054;50.108;8.640;2022-08-21T12:58:25;36.60;41.90
26342;DHT22;14054;50.108;8.640;2022-08-21T13:00:56;35.60;43.90
26342;DHT22;14054;50.108;8.640;2022-08-21T13:03:23;36.20;43.00
26342;DHT22;14054;50.108;8.640;2022-08-21T13:05:50;35.60;42.30
26342;DHT22;14054;50.108;8.640;2022-08-21T13:08:20;36.10;41.70
26342;DHT22;14054;50.108;8.640;2022-08-21T13:10:47;36.00;41.90
26342;DHT22;14054;50.108;8.640;2022-08-21T13:13:21;36.80;46.70
26342;DHT22;14054;50.108;8.640;2022-08-21T13:15:47;38.00;37.10
26342;DHT22;14054;50.108;8.640;2022-08-21T13:18:24;37.90;37.60
26342;DHT22;14054;50.108;8.640;2022-08-21T13:20:51;38.40;37.00
26342;DHT22;14054;50.108;8.640;2022-08-21T13:23:25;36.60;38.70
26342;DHT22;14054;50.108;8.640;2022-08-21T13:25:51;34.00;50.40
26342;DHT22;14054;50.108;8.640;2022-08-21T13:28:17;33.80;50.30
26342;DHT22;14054;50.108;8.640;2022-08-21T13:30:54;34.50;49.90
26342;DHT22;14054;50.108;8.640;2022-08-21T13:33:22;35.90;46.50
26342;DHT22;14054;50.108;8.640;2022-08-21T13:38:27;36.80;56.20
26342;DHT22;14054;50.108;8.640;2022-08-21T13:40:56;35.60;52.30
26342;DHT22;14054;50.108;8.640;2022-08-21T13:43:27;33.20;61.70
26342;DHT22;14054;50.108;8.640;2022-08-21T13:45:54;31.60;52.10
26342;DHT22;14054;50.108;8.640;2022-08-21T13:48:22;33.60;49.60
26342;DHT22;14054;50.108;8.640;2022-08-21T13:50:49;35.20;52.50
26342;DHT22;14054;50.108;8.640;2022-08-21T13:55:52;33.20;44.50
26342;DHT22;14054;50.108;8.640;2022-08-21T13:58:31;32.80;44.90
26342;DHT22;14054;50.108;8.640;2022-08-21T14:00:59;32.90;43.90
26342;DHT22;14054;50.108;8.640;2022-08-21T14:03:33;32.50;55.40
26342;DHT22;14054;50.108;8.640;2022-08-21T14:05:59;31.70;52.20
26342;DHT22;14054;50.108;8.640;2022-08-21T14:08:36;34.90;40.90
26342;DHT22;14054;50.108;8.640;2022-08-21T14:11:04;34.80;41.50
26342;DHT22;14054;50.108;8.640;2022-08-21T14:13:42;34.50;41.10
26342;DHT22;14054;50.108;8.640;2022-08-21T14:16:15;33.40;52.40
26342;DHT22;14054;50.108;8.640;2022-08-21T14:21:41;31.90;45.80
26342;DHT22;14054;50.108;8.640;2022-08-21T14:27:06;34.50;40.90
26342;DHT22;14054;50.108;8.640;2022-08-21T14:29:40;32.90;44.00
26342;DHT22;14054;50.108;8.640;2022-08-21T14:34:36;31.00;46.40
26342;DHT22;14054;50.108;8.640;2022-08-21T14:37:01;31.00;46.80
26342;DHT22;14054;50.108;8.640;2022-08-21T14:41:53;30.50;46.70
26342;DHT22;14054;50.108;8.640;2022-08-21T14:44:19;30.10;53.80
26342;DHT22;14054;50.108;8.640;2022-08-21T14:46:45;30.10;59.30
26342;DHT22;14054;50.108;8.640;2022-08-21T14:49:11;30.20;60.00
26342;DHT22;14054;50.108;8.640;2022-08-21T14:51:37;30.30;65.70
26342;DHT22;14054;50.108;8.640;2022-08-21T14:54:04;30.10;57.90
26342;DHT22;14054;50.108;8.640;2022-08-21T14:59:04;29.30;48.60
26342;DHT22;14054;50.108;8.640;2022-08-21T15:01:32;29.10;49.60
26342;DHT22;14054;50.108;8.640;2022-08-21T15:06:25;28.80;49.70
26342;DHT22;14054;50.108;8.640;2022-08-21T15:11:19;28.50;50.50
26342;DHT22;14054;50.108;8.640;2022-08-21T15:13:46;28.40;51.40
26342;DHT22;14054;50.108;8.640;2022-08-21T15:16:12;28.40;51.60
26342;DHT22;14054;50.108;8.640;2022-08-21T15:18:39;28.30;51.10
26342;DHT22;14054;50.108;8.640;2022-08-21T15:23:30;28.00;94.10
26342;DHT22;14054;50.108;8.640;2022-08-21T15:25:56;27.90;51.40
26342;DHT22;14054;50.108;8.640;2022-08-21T15:28:23;27.90;51.40
26342;DHT22;14054;50.108;8.640;2022-08-21T15:30:50;27.90;51.30
26342;DHT22;14054;50.108;8.640;2022-08-21T15:33:16;27.90;51.30
26342;DHT22;14054;50.108;8.640;2022-08-21T15:35:42;27.90;51.60
26342;DHT22;14054;50.108;8.640;2022-08-21T15:38:07;27.90;51.40
26342;DHT22;14054;50.108;8.640;2022-08-21T15:40:34;27.90;51.30
26342;DHT22;14054;50.108;8.640;2022-08-21T15:43:02;27.90;51.10
26342;DHT22;14054;50.108;8.640;2022-08-21T15:45:28;28.00;50.90
26342;DHT22;14054;50.108;8.640;2022-08-21T15:47:54;28.30;51.30
26342;DHT22;14054;50.108;8.640;2022-08-21T15:50:21;28.40;50.70
26342;DHT22;14054;50.108;8.640;2022-08-21T15:52:46;28.50;51.30
26342;DHT22;14054;50.108;8.640;2022-08-21T15:55:12;28.30;50.80
26342;DHT22;14054;50.108;8.640;2022-08-21T15:57:43;28.30;50.00
26342;DHT22;14054;50.108;8.640;2022-08-21T16:00:16;28.10;50.30
26342;DHT22;14054;50.108;8.640;2022-08-21T16:02:46;27.90;50.40
26342;DHT22;14054;50.108;8.640;2022-08-21T16:05:13;27.80;50.80
26342;DHT22;14054;50.108;8.640;2022-08-21T16:07:41;27.80;51.00
26342;DHT22;14054;50.108;8.640;2022-08-21T16:10:07;27.70;51.00
26342;DHT22;14054;50.108;8.640;2022-08-21T16:12:40;27.70;51.00
26342;DHT22;14054;50.108;8.640;2022-08-21T16:15:09;27.60;71.40
26342;DHT22;14054;50.108;8.640;2022-08-21T16:17:36;27.70;51.50
26342;DHT22;14054;50.108;8.640;2022-08-21T16:20:07;27.70;51.40
26342;DHT22;14054;50.108;8.640;2022-08-21T16:22:33;27.80;51.20
26342;DHT22;14054;50.108;8.640;2022-08-21T16:24:59;27.70;50.60
26342;DHT22;14054;50.108;8.640;2022-08-21T16:27:24;27.60;50.90
26342;DHT22;14054;50.108;8.640;2022-08-21T16:29:50;27.60;51.50
26342;DHT22;14054;50.108;8.640;2022-08-21T16:32:16;27.60;51.50
26342;DHT22;14054;50.108;8.640;2022-08-21T16:34:45;27.50;51.50
26342;DHT22;14054;50.108;8.640;2022-08-21T16:37:11;27.50;51.60
26342;DHT22;14054;50.108;8.640;2022-08-21T16:39:37;27.50;52.10
26342;DHT22;14054;50.108;8.640;2022-08-21T16:42:03;27.50;52.50
26342;DHT22;14054;50.108;8.640;2022-08-21T16:44:28;27.50;52.80
26342;DHT22;14054;50.108;8.640;2022-08-21T16:46:54;27.50;52.50
26342;DHT22;14054;50.108;8.640;2022-08-21T16:49:19;27.40;53.00
26342;DHT22;14054;50.108;8.640;2022-08-21T16:51:45;27.40;52.90
26342;DHT22;14054;50.108;8.640;2022-08-21T16:54:11;27.40;52.40
26342;DHT22;14054;50.108;8.640;2022-08-21T16:56:36;27.40;52.80
26342;DHT22;14054;50.108;8.640;2022-08-21T16:59:03;27.30;53.30
26342;DHT22;14054;50.108;8.640;2022-08-21T17:01:31;27.30;52.80
26342;DHT22;14054;50.108;8.640;2022-08-21T17:03:57;27.20;52.70
26342;DHT22;14054;50.108;8.640;2022-08-21T17:06:24;27.20;53.60
26342;DHT22;14054;50.108;8.640;2022-08-21T17:08:50;27.10;53.40
26342;DHT22;14054;50.108;8.640;2022-08-21T17:11:23;27.00;53.50
26342;DHT22;14054;50.108;8.640;2022-08-21T17:13:50;26.90;53.50
26342;DHT22;14054;50.108;8.640;2022-08-21T17:16:16;26.90;53.60
26342;DHT22;14054;50.108;8.640;2022-08-21T17:18:41;26.70;53.70